Time;durP1;ratioP1;P1;durP2;ratioP2;P2;SDS_P1;SDS_P2;PMS_P1;PMS_P2;Temp;Humidity;BMP_temperature;BMP_pressure;BME280_temperature;BME280_humidity;BME280_pressure;Samples;Min_cycle;Max_cycle;Signal;HPM_P1;HPM_P2
2021/05/03 00:01:43;;;;;;;1999.90;999.90;;;;;;;13.76;63.57;95380.28;5071636;28;20224;-61
2021/05/03 00:04:10;;;;;;;1999.90;999.90;;;;;;;13.75;63.88;95378.75;5071361;28;20199;-60
2021/05/03 00:06:37;;;;;;;1999.90;999.90;;;;;;;13.74;64.51;95366.78;5071417;28;20671;-61
2021/05/03 00:09:05;;;;;;;1999.90;999.90;;;;;;;13.54;65.12;95366.75;5071258;28;20203;-62
2021/05/03 00:11:33;;;;;;;1999.90;999.90;;;;;;;13.40;65.36;95368.81;5071446;28;20674;-61
2021/05/03 00:14:01;;;;;;;1999.90;999.90;;;;;;;13.17;67.56;95376.84;5071134;28;20764;-61
2021/05/03 00:16:27;;;;;;;1999.90;999.90;;;;;;;13.01;68.55;95378.41;5070848;28;20773;-60
2021/05/03 00:18:54;;;;;;;1999.90;999.90;;;;;;;12.81;70.59;95371.22;5071141;28;20235;-61
2021/05/03 00:21:22;;;;;;;1999.90;999.90;;;;;;;12.72;70.78;95373.84;5071193;28;20307;-62
2021/05/03 00:23:49;;;;;;;1999.90;999.90;;;;;;;12.63;71.38;95374.94;5071391;28;20196;-61
2021/05/03 00:26:16;;;;;;;1999.90;999.90;;;;;;;12.52;73.50;95379.69;5071322;28;20204;-62
2021/05/03 00:28:44;;;;;;;1999.90;999.90;;;;;;;12.42;74.59;95386.00;5070867;28;20231;-63
2021/05/03 00:31:11;;;;;;;1999.90;999.90;;;;;;;12.46;73.79;95381.69;5070867;28;20224;-61
2021/05/03 00:33:39;;;;;;;1999.90;999.90;;;;;;;12.46;74.88;95381.69;5071223;28;20203;-61
2021/05/03 00:36:06;;;;;;;1999.90;999.90;;;;;;;12.47;73.69;95378.03;5071050;28;20715;-62
2021/05/03 00:38:33;;;;;;;1999.90;999.90;;;;;;;12.45;73.78;95387.22;5070761;28;20235;-61
2021/05/03 00:41:00;;;;;;;1999.90;999.90;;;;;;;12.58;73.34;95404.53;5070682;28;20271;-61
2021/05/03 00:43:26;;;;;;;1999.90;999.90;;;;;;;12.60;70.35;95406.84;5070623;28;20578;-62
2021/05/03 00:45:55;;;;;;;1999.90;999.90;;;;;;;12.60;70.24;95405.00;5070700;28;20226;-60
2021/05/03 00:48:23;;;;;;;1999.90;999.90;;;;;;;12.65;69.76;95415.25;5070750;28;20192;-61
2021/05/03 00:50:51;;;;;;;1999.90;999.90;;;;;;;12.77;68.52;95425.84;5070513;28;20203;-61
2021/05/03 00:53:18;;;;;;;1999.90;999.90;;;;;;;12.79;67.25;95431.53;5070427;28;20253;-61
2021/05/03 00:55:45;;;;;;;1999.90;999.90;;;;;;;12.76;67.83;95423.53;5070537;28;20196;-61
2021/05/03 00:58:12;;;;;;;1999.90;999.90;;;;;;;12.79;67.31;95421.09;5070396;28;20196;-61
2021/05/03 01:00:40;;;;;;;1999.90;999.90;;;;;;;12.88;65.03;95428.91;5070344;28;20196;-62
2021/05/03 01:03:10;;;;;;;1999.90;999.90;;;;;;;12.99;63.09;95429.38;5069452;28;20235;-61
2021/05/03 01:05:38;;;;;;;1999.90;999.90;;;;;;;12.98;64.15;95427.81;5070572;28;20196;-60
2021/05/03 01:08:05;;;;;;;1999.90;999.90;;;;;;;12.91;64.63;95413.41;5070336;28;20227;-61
2021/05/03 01:10:32;;;;;;;1999.90;999.90;;;;;;;13.05;64.06;95407.25;5070352;28;20615;-61
2021/05/03 01:13:00;;;;;;;1999.90;999.90;;;;;;;13.09;64.87;95405.56;5070211;28;20193;-60
2021/05/03 01:15:27;;;;;;;1999.90;999.90;;;;;;;12.97;66.40;95406.19;5070528;28;20265;-61
2021/05/03 01:17:56;;;;;;;1999.90;999.90;;;;;;;12.94;66.89;95412.03;5070079;28;20264;-61
2021/05/03 01:20:26;;;;;;;1999.90;999.90;;;;;;;12.79;67.42;95410.66;5070146;28;20279;-61
2021/05/03 01:22:57;;;;;;;1999.90;999.90;;;;;;;12.80;68.26;95411.44;5070009;28;20228;-60
2021/05/03 01:25:27;;;;;;;1999.90;999.90;;;;;;;12.82;67.21;95415.25;5070300;28;20215;-60
2021/05/03 01:27:55;;;;;;;1999.90;999.90;;;;;;;12.73;68.13;95418.94;5070011;28;20310;-61
2021/05/03 01:30:29;;;;;;;1999.90;999.90;;;;;;;12.65;66.28;95430.16;5069900;28;20725;-60
2021/05/03 01:32:56;;;;;;;1999.90;999.90;;;;;;;12.67;66.94;95422.78;5069998;28;20686;-61
2021/05/03 01:35:23;;;;;;;1999.90;999.90;;;;;;;12.74;66.02;95416.03;5069989;28;20193;-60
2021/05/03 01:37:57;;;;;;;1999.90;999.90;;;;;;;12.67;66.12;95413.13;5069913;28;20192;-60
2021/05/03 01:40:26;;;;;;;1999.90;999.90;;;;;;;12.66;66.39;95414.19;5069946;28;20279;-61
2021/05/03 01:42:53;;;;;;;1999.90;999.90;;;;;;;12.56;65.33;95419.72;5069950;28;20227;-61
2021/05/03 01:45:24;;;;;;;1999.90;999.90;;;;;;;12.64;64.97;95418.97;5069942;28;20283;-61
2021/05/03 01:47:52;;;;;;;1999.90;999.90;;;;;;;12.58;65.07;95416.81;5069947;28;20737;-61
2021/05/03 01:50:20;;;;;;;1999.90;999.90;;;;;;;12.59;65.37;95426.94;5069763;28;20196;-60
2021/05/03 01:52:47;;;;;;;1999.90;999.90;;;;;;;12.59;64.89;95426.94;5069706;28;20192;-62
2021/05/03 01:55:17;;;;;;;1999.90;999.90;;;;;;;12.51;64.99;95441.50;5070072;28;20213;-60
2021/05/03 01:57:44;;;;;;;1999.90;999.90;;;;;;;12.55;64.43;95438.28;5069999;28;20195;-61
2021/05/03 02:00:13;;;;;;;1999.90;999.90;;;;;;;12.54;64.52;95439.34;5069722;28;20660;-61
2021/05/03 02:02:40;;;;;;;1999.90;999.90;;;;;;;12.50;65.13;95444.41;5069602;28;20602;-61
2021/05/03 02:05:07;;;;;;;1999.90;999.90;;;;;;;12.48;64.85;95446.56;5069946;28;20236;-61
2021/05/03 02:07:35;;;;;;;1999.90;999.90;;;;;;;12.44;64.06;95458.66;5069994;28;20325;-59
2021/05/03 02:10:02;;;;;;;1999.90;999.90;;;;;;;12.44;64.53;95453.47;5070064;28;20254;-61
2021/05/03 02:12:29;;;;;;;1999.90;999.90;;;;;;;12.43;64.18;95460.50;5069917;28;20717;-60
2021/05/03 02:14:56;;;;;;;1999.90;999.90;;;;;;;12.44;64.10;95464.66;5071179;28;20715;-60
2021/05/03 02:17:24;;;;;;;1999.90;999.90;;;;;;;12.51;63.43;95474.59;5073324;28;20275;-61
2021/05/03 02:19:50;;;;;;;1999.90;999.90;;;;;;;12.52;65.11;95470.94;5073654;28;20632;-62
2021/05/03 02:22:17;;;;;;;1999.90;999.90;;;;;;;12.54;64.08;95471.41;5073557;28;20657;-60
2021/05/03 02:24:44;;;;;;;1999.90;999.90;;;;;;;12.39;65.97;95464.03;5073376;28;20196;-62
2021/05/03 02:27:11;;;;;;;1999.90;999.90;;;;;;;12.24;66.29;95472.28;5073418;28;20283;-61
2021/05/03 02:29:39;;;;;;;1999.90;999.90;;;;;;;12.14;67.03;95464.75;5073108;28;20307;-61
2021/05/03 02:32:06;;;;;;;1999.90;999.90;;;;;;;12.16;67.61;95470.41;5073180;28;20200;-61
2021/05/03 02:34:33;;;;;;;1999.90;999.90;;;;;;;12.15;67.54;95468.88;5073100;28;20283;-60
2021/05/03 02:37:00;;;;;;;1999.90;999.90;;;;;;;12.12;68.53;95469.47;5073100;28;20192;-60
2021/05/03 02:39:26;;;;;;;1999.90;999.90;;;;;;;12.01;70.45;95472.34;5073004;28;20667;-60
2021/05/03 02:41:53;;;;;;;1999.90;999.90;;;;;;;12.00;71.89;95472.69;5073025;28;20277;-60
2021/05/03 02:44:20;;;;;;;1999.90;999.90;;;;;;;11.95;71.15;95480.63;5072956;28;20196;-63
2021/05/03 02:46:48;;;;;;;1999.90;999.90;;;;;;;11.81;72.16;95505.97;5073194;28;20811;-60
2021/05/03 02:49:15;;;;;;;1999.90;999.90;;;;;;;11.73;72.92;95480.69;5072920;28;20683;-60
2021/05/03 02:51:41;;;;;;;1999.90;999.90;;;;;;;11.70;74.29;95489.84;5072703;28;20655;-60
2021/05/03 02:54:09;;;;;;;1999.90;999.90;;;;;;;11.61;75.27;95496.81;5073017;28;20196;-60
2021/05/03 02:56:36;;;;;;;1999.90;999.90;;;;;;;11.47;75.29;95506.56;5072655;28;20207;-60
2021/05/03 02:59:03;;;;;;;1999.90;999.90;;;;;;;11.43;74.61;95501.19;5072614;28;20207;-60
2021/05/03 03:01:29;;;;;;;1999.90;999.90;;;;;;;11.47;74.51;95517.72;5072731;28;20370;-60
2021/05/03 03:03:57;;;;;;;1999.90;999.90;;;;;;;11.44;73.46;95512.38;5072789;28;20396;-60
2021/05/03 03:06:24;;;;;;;1999.90;999.90;;;;;;;11.50;72.41;95519.00;5072872;28;20556;-60
2021/05/03 03:08:50;;;;;;;1999.90;999.90;;;;;;;11.49;70.87;95512.25;5072674;28;20235;-60
2021/05/03 03:11:19;;;;;;;1999.90;999.90;;;;;;;11.50;72.13;95517.16;5072429;28;20204;-60
2021/05/03 03:13:46;;;;;;;1999.90;999.90;;;;;;;11.43;72.66;95519.41;5072736;28;20236;-58
2021/05/03 03:16:16;;;;;;;1999.90;999.90;;;;;;;11.38;72.01;95529.16;5072165;28;20258;-60
2021/05/03 03:18:43;;;;;;;1999.90;999.90;;;;;;;11.46;70.02;95534.41;5072512;28;20220;-61
2021/05/03 03:21:11;;;;;;;1999.90;999.90;;;;;;;11.33;72.88;95537.84;5072525;28;20603;-60
2021/05/03 03:23:37;;;;;;;1999.90;999.90;;;;;;;11.48;68.96;95537.50;5072271;28;20637;-61
2021/05/03 03:26:04;;;;;;;1999.90;999.90;;;;;;;11.69;66.99;95540.38;5071327;28;20208;-62
2021/05/03 03:28:31;;;;;;;1999.90;999.90;;;;;;;11.71;67.66;95538.22;5072571;28;20196;-60
2021/05/03 03:30:58;;;;;;;1999.90;999.90;;;;;;;11.73;68.54;95541.34;5072446;28;20192;-62
2021/05/03 03:33:25;;;;;;;1999.90;999.90;;;;;;;11.62;69.73;95553.03;5072292;28;20193;-59
2021/05/03 03:35:53;;;;;;;1999.90;999.90;;;;;;;11.45;70.83;95551.09;5072047;28;20619;-61
2021/05/03 03:38:20;;;;;;;1999.90;999.90;;;;;;;11.47;72.42;95556.00;5072086;28;20200;-61
2021/05/03 03:40:47;;;;;;;1999.90;999.90;;;;;;;11.28;74.25;95563.22;5072127;28;20216;-62
2021/05/03 03:43:14;;;;;;;1999.90;999.90;;;;;;;11.39;74.26;95567.13;5071914;28;20224;-61
2021/05/03 03:45:42;;;;;;;1999.90;999.90;;;;;;;11.39;73.50;95573.09;5071856;28;20192;-61
2021/05/03 03:48:09;;;;;;;1999.90;999.90;;;;;;;11.48;74.17;95573.16;5071813;28;20564;-61
2021/05/03 03:50:37;;;;;;;1999.90;999.90;;;;;;;11.55;75.94;95576.13;5071848;28;20265;-60
2021/05/03 03:53:04;;;;;;;1999.90;999.90;;;;;;;11.58;76.95;95576.28;5071666;28;20520;-61
2021/05/03 03:55:32;;;;;;;1999.90;999.90;;;;;;;11.62;77.44;95579.06;5072112;28;20220;-61
2021/05/03 03:58:00;;;;;;;1999.90;999.90;;;;;;;11.70;76.68;95593.97;5071756;28;20275;-61
2021/05/03 04:00:27;;;;;;;1999.90;999.90;;;;;;;11.77;74.19;95588.38;5071558;28;20296;-61
2021/05/03 04:02:55;;;;;;;1999.90;999.90;;;;;;;11.90;71.97;95596.13;5071392;28;20319;-61
2021/05/03 04:05:34;;;;;;;1999.90;999.90;;;;;;;12.00;71.09;95595.84;5071396;28;20722;-60
2021/05/03 04:08:07;;;;;;;1999.90;999.90;;;;;;;11.99;69.88;95591.72;5071899;28;20200;-61
2021/05/03 04:10:45;;;;;;;1999.90;999.90;;;;;;;12.06;69.00;95597.25;5071610;28;20200;-62
2021/05/03 04:21:37;;;;;;;1999.90;999.90;;;;;;;12.41;70.28;95628.66;5071088;28;20286;-61
2021/05/03 04:24:11;;;;;;;1999.90;999.90;;;;;;;12.72;69.48;95626.78;5071020;28;20210;-60
2021/05/03 04:26:39;;;;;;;1999.90;999.90;;;;;;;12.90;67.87;95628.34;5069684;28;20589;-60
2021/05/03 04:29:06;;;;;;;1999.90;999.90;;;;;;;13.29;65.64;95631.97;5071152;28;20197;-60
2021/05/03 04:31:33;;;;;;;1999.90;999.90;;;;;;;13.52;65.46;95628.13;5071476;28;20286;-59
2021/05/03 04:33:59;;;;;;;1999.90;999.90;;;;;;;13.87;64.59;95630.72;5071012;28;20199;-59
2021/05/03 04:36:26;;;;;;;1999.90;999.90;;;;;;;14.24;64.26;95627.41;5070803;28;20228;-61
2021/05/03 04:38:53;;;;;;;1999.90;999.90;;;;;;;14.56;64.41;95639.13;5070952;28;20212;-60
2021/05/03 04:41:20;;;;;;;1999.90;999.90;;;;;;;14.66;64.00;95651.88;5070872;28;20630;-61
2021/05/03 04:43:48;;;;;;;1999.90;999.90;;;;;;;14.81;63.33;95659.19;5070972;28;20243;-62
2021/05/03 04:46:16;;;;;;;1999.90;999.90;;;;;;;14.97;63.25;95667.25;5070760;28;20200;-59
2021/05/03 04:48:44;;;;;;;1999.90;999.90;;;;;;;15.06;63.31;95662.75;5070516;28;20650;-59
2021/05/03 04:51:11;;;;;;;1999.90;999.90;;;;;;;15.08;63.03;95656.13;5070594;28;20206;-61
2021/05/03 04:53:38;;;;;;;1999.90;999.90;;;;;;;15.20;63.49;95667.75;5070435;28;20673;-60
2021/05/03 04:56:05;;;;;;;1999.90;999.90;;;;;;;15.49;62.86;95680.81;5070707;28;20200;-61
2021/05/03 04:58:33;;;;;;;1999.90;999.90;;;;;;;15.43;62.33;95685.47;5070650;28;20196;-60
2021/05/03 05:01:01;;;;;;;1999.90;999.90;;;;;;;15.56;61.62;95675.84;5070258;28;20192;-60
2021/05/03 05:03:27;;;;;;;1999.90;999.90;;;;;;;15.42;61.25;95675.31;5070172;28;20228;-59
2021/05/03 05:05:54;;;;;;;1999.90;999.90;;;;;;;15.55;60.94;95682.16;5070488;28;20232;-61
2021/05/03 05:08:23;;;;;;;1999.90;999.90;;;;;;;15.68;61.59;95680.38;5070547;28;20200;-60
2021/05/03 05:10:50;;;;;;;1999.90;999.90;;;;;;;15.71;63.12;95685.75;5070390;28;20227;-61
2021/05/03 05:13:17;;;;;;;1999.90;999.90;;;;;;;15.58;63.08;95706.97;5070392;28;20287;-61
2021/05/03 05:15:44;;;;;;;1999.90;999.90;;;;;;;15.69;61.88;95711.50;5070295;28;20236;-60
2021/05/03 05:18:12;;;;;;;1999.90;999.90;;;;;;;15.84;61.98;95710.16;5070306;28;20664;-60
2021/05/03 05:20:40;;;;;;;1999.90;999.90;;;;;;;16.08;60.86;95691.16;5070055;28;20262;-60
2021/05/03 05:23:07;;;;;;;1999.90;999.90;;;;;;;16.22;61.17;95695.00;5069940;28;20225;-63
2021/05/03 05:25:34;;;;;;;1999.90;999.90;;;;;;;16.39;60.39;95698.56;5070262;28;20265;-63
2021/05/03 05:28:01;;;;;;;1999.90;999.90;;;;;;;16.58;60.80;95706.69;5070335;28;20199;-59
2021/05/03 05:30:28;;;;;;;1999.90;999.90;;;;;;;16.74;62.37;95708.34;5070206;28;20263;-61
2021/05/03 05:32:55;;;;;;;1999.90;999.90;;;;;;;16.97;60.45;95695.59;5069971;28;20722;-61
2021/05/03 05:35:24;;;;;;;1999.90;999.90;;;;;;;16.71;60.05;95690.66;5069886;28;20262;-61
2021/05/03 05:37:50;;;;;;;1999.90;999.90;;;;;;;16.56;61.85;95688.63;5069980;28;20200;-61
2021/05/03 05:40:17;;;;;;;1999.90;999.90;;;;;;;16.71;64.37;95695.91;5069914;28;20200;-63
2021/05/03 05:42:44;;;;;;;1999.90;999.90;;;;;;;16.97;64.40;95702.69;5069849;28;20310;-61
2021/05/03 05:45:12;;;;;;;1999.90;999.90;;;;;;;16.89;64.01;95701.69;5070015;28;20683;-60
2021/05/03 05:47:38;;;;;;;1999.90;999.90;;;;;;;16.91;65.13;95702.13;5070380;28;20192;-63
2021/05/03 05:50:07;;;;;;;1999.90;999.90;;;;;;;17.16;66.79;95711.56;5071990;28;20307;-61
2021/05/03 05:52:35;;;;;;;1999.90;999.90;;;;;;;17.38;66.05;95722.72;5073815;28;20565;-61
2021/05/03 05:55:02;;;;;;;1999.90;999.90;;;;;;;17.76;64.75;95709.94;5073967;28;20291;-61
2021/05/03 05:57:29;;;;;;;1999.90;999.90;;;;;;;17.75;63.79;95715.53;5074005;28;20678;-61
2021/05/03 05:59:56;;;;;;;1999.90;999.90;;;;;;;18.08;65.37;95711.56;5073983;28;20197;-60
2021/05/03 06:02:22;;;;;;;1999.90;999.90;;;;;;;18.49;65.27;95715.66;5073917;28;20240;-61
2021/05/03 06:04:50;;;;;;;1999.90;999.90;;;;;;;18.79;63.98;95718.69;5073731;28;20200;-61
2021/05/03 06:07:17;;;;;;;1999.90;999.90;;;;;;;18.87;63.45;95717.00;5073723;28;20203;-61
2021/05/03 06:09:45;;;;;;;1999.90;999.90;;;;;;;18.78;63.14;95711.88;5073546;28;20230;-62
2021/05/03 06:12:12;;;;;;;1999.90;999.90;;;;;;;18.79;63.02;95702.88;5073594;28;20193;-62
2021/05/03 06:14:38;;;;;;;1999.90;999.90;;;;;;;18.99;63.13;95695.06;5073520;28;20256;-61
2021/05/03 06:17:05;;;;;;;1999.90;999.90;;;;;;;19.09;64.24;95708.47;5073399;28;20239;-61
2021/05/03 06:19:32;;;;;;;1999.90;999.90;;;;;;;18.96;61.72;95716.81;5073341;28;20209;-61
2021/05/03 06:21:59;;;;;;;1999.90;999.90;;;;;;;18.87;64.84;95706.47;5073834;28;20326;-61
2021/05/03 06:24:25;;;;;;;1999.90;999.90;;;;;;;18.93;62.79;95697.94;5073701;28;20287;-60
2021/05/03 06:26:53;;;;;;;1999.90;999.90;;;;;;;19.17;60.33;95698.88;5073148;28;20251;-61
2021/05/03 06:29:20;;;;;;;1999.90;999.90;;;;;;;18.98;60.41;95704.81;5073264;28;20194;-61
2021/05/03 06:31:47;;;;;;;1999.90;999.90;;;;;;;19.20;60.56;95704.22;5073163;28;20650;-60
2021/05/03 06:34:14;;;;;;;1999.90;999.90;;;;;;;19.28;58.03;95705.88;5073808;28;20192;-61
2021/05/03 06:36:41;;;;;;;1999.90;999.90;;;;;;;19.47;57.26;95701.81;5073067;28;20203;-61
2021/05/03 06:39:10;;;;;;;1999.90;999.90;;;;;;;19.38;57.32;95707.22;5073008;28;20218;-61
2021/05/03 06:41:37;;;;;;;1999.90;999.90;;;;;;;19.63;55.59;95707.78;5072912;28;20208;-61
2021/05/03 06:44:05;;;;;;;1999.90;999.90;;;;;;;19.70;55.65;95708.72;5073316;28;20192;-61
2021/05/03 06:46:33;;;;;;;1999.90;999.90;;;;;;;19.87;54.21;95693.59;5073014;28;20280;-61
2021/05/03 06:49:00;;;;;;;1999.90;999.90;;;;;;;19.72;55.55;95690.69;5073110;28;20571;-60
2021/05/03 06:51:27;;;;;;;1999.90;999.90;;;;;;;19.58;55.33;95697.50;5072958;28;20236;-62
2021/05/03 06:53:54;;;;;;;1999.90;999.90;;;;;;;19.81;54.27;95702.88;5072752;28;20199;-61
2021/05/03 06:56:21;;;;;;;1999.90;999.90;;;;;;;19.93;53.08;95705.38;5072748;28;20199;-62
2021/05/03 06:58:47;;;;;;;1999.90;999.90;;;;;;;19.96;52.25;95704.69;5072755;28;20246;-61
2021/05/03 07:01:15;;;;;;;1999.90;999.90;;;;;;;19.80;53.99;95704.00;5071267;28;20283;-61
2021/05/03 07:03:43;;;;;;;1999.90;999.90;;;;;;;19.83;52.23;95705.94;5072777;28;20224;-61
2021/05/03 07:06:10;;;;;;;1999.90;999.90;;;;;;;19.80;53.28;95709.25;5073353;28;20204;-62
2021/05/03 07:08:38;;;;;;;1999.90;999.90;;;;;;;19.82;53.38;95699.91;5072818;28;20352;-61
2021/05/03 07:11:08;;;;;;;1999.90;999.90;;;;;;;19.92;52.82;95699.34;5072555;28;20196;-61
2021/05/03 07:13:37;;;;;;;1999.90;999.90;;;;;;;20.03;50.46;95700.31;5072659;28;20212;-61
2021/05/03 07:16:04;;;;;;;1999.90;999.90;;;;;;;19.97;52.76;95693.03;5072565;28;20199;-60
2021/05/03 07:18:32;;;;;;;1999.90;999.90;;;;;;;20.04;52.64;95690.50;5072581;28;20231;-62
2021/05/03 07:20:59;;;;;;;1999.90;999.90;;;;;;;19.93;47.71;95692.19;5072415;28;20220;-60
2021/05/03 07:23:28;;;;;;;1999.90;999.90;;;;;;;19.68;49.92;95697.72;5072186;28;20224;-60
2021/05/03 07:25:57;;;;;;;1999.90;999.90;;;;;;;19.81;47.62;95697.59;5072312;28;20212;-61
2021/05/03 07:28:23;;;;;;;1999.90;999.90;;;;;;;19.82;49.03;95696.50;5072535;28;20193;-62
2021/05/03 07:30:52;;;;;;;1999.90;999.90;;;;;;;19.56;48.93;95711.06;5072205;28;20518;-60
2021/05/03 07:33:19;;;;;;;1999.90;999.90;;;;;;;19.68;49.10;95708.28;5072074;28;20283;-61
2021/05/03 07:35:47;;;;;;;1999.90;999.90;;;;;;;19.55;48.79;95706.88;5072086;28;20189;-60
2021/05/03 07:38:14;;;;;;;1999.90;999.90;;;;;;;19.53;47.84;95708.31;5072030;28;20778;-61
2021/05/03 07:40:41;;;;;;;1999.90;999.90;;;;;;;19.32;48.47;95706.75;5072018;28;20329;-60
2021/05/03 07:43:08;;;;;;;1999.90;999.90;;;;;;;19.16;49.88;95713.16;5071927;28;20592;-60
2021/05/03 07:45:35;;;;;;;1999.90;999.90;;;;;;;19.20;50.52;95708.72;5071857;28;20279;-61
2021/05/03 07:48:02;;;;;;;1999.90;999.90;;;;;;;19.17;50.93;95704.13;5071973;28;20235;-62
2021/05/03 07:50:29;;;;;;;1999.90;999.90;;;;;;;19.24;50.26;95705.06;5071858;28;20199;-63
2021/05/03 07:52:57;;;;;;;1999.90;999.90;;;;;;;19.05;49.13;95696.31;5071693;28;20200;-62
2021/05/03 07:55:25;;;;;;;1999.90;999.90;;;;;;;19.11;50.56;95700.22;5071846;28;20200;-63
2021/05/03 07:57:52;;;;;;;1999.90;999.90;;;;;;;19.20;50.18;95698.19;5071635;28;20203;-62
2021/05/03 08:00:20;;;;;;;1999.90;999.90;;;;;;;19.54;49.86;95700.06;5071441;28;20648;-63
2021/05/03 08:02:47;;;;;;;1999.90;999.90;;;;;;;19.80;48.75;95710.03;5071391;28;20657;-63
2021/05/03 08:05:14;;;;;;;1999.90;999.90;;;;;;;20.06;49.94;95712.06;5071363;28;20199;-62
2021/05/03 08:07:41;;;;;;;1999.90;999.90;;;;;;;20.35;47.85;95710.72;5071505;28;20293;-63
2021/05/03 08:10:12;;;;;;;1999.90;999.90;;;;;;;19.78;48.42;95713.00;5071400;28;20283;-65
2021/05/03 08:12:39;;;;;;;1999.90;999.90;;;;;;;19.58;50.24;95726.50;5071159;28;20193;-62
2021/05/03 08:15:11;;;;;;;1999.90;999.90;;;;;;;19.83;50.25;95724.38;5071289;28;20308;-60
2021/05/03 08:17:38;;;;;;;1999.90;999.90;;;;;;;19.75;49.06;95718.97;5071498;28;20232;-62
2021/05/03 08:20:06;;;;;;;1999.90;999.90;;;;;;;19.65;49.94;95730.06;5071341;28;20196;-60
2021/05/03 08:22:34;;;;;;;1999.90;999.90;;;;;;;19.68;49.91;95723.34;5071185;28;20619;-61
2021/05/03 08:25:01;;;;;;;1999.90;999.90;;;;;;;19.48;50.69;95729.69;5070987;28;20207;-61
2021/05/03 08:27:28;;;;;;;1999.90;999.90;;;;;;;19.54;49.83;95733.59;5071105;28;20664;-63
2021/05/03 08:29:55;;;;;;;1999.90;999.90;;;;;;;19.42;50.17;95736.31;5070923;28;20201;-61
2021/05/03 08:32:22;;;;;;;1999.90;999.90;;;;;;;19.93;52.19;95729.13;5070830;28;20220;-60
2021/05/03 08:34:49;;;;;;;1999.90;999.90;;;;;;;19.99;51.36;95733.78;5071575;28;20358;-60
2021/05/03 08:37:19;;;;;;;1999.90;999.90;;;;;;;19.96;50.06;95736.34;5071314;28;20299;-61
2021/05/03 08:39:46;;;;;;;1999.90;999.90;;;;;;;20.32;48.39;95741.25;5070762;28;20224;-61
2021/05/03 08:42:16;;;;;;;1999.90;999.90;;;;;;;20.47;49.82;95748.28;5070923;28;20235;-59
2021/05/03 08:44:45;;;;;;;1999.90;999.90;;;;;;;20.94;48.91;95749.84;5071338;28;20200;-60
2021/05/03 08:47:12;;;;;;;1999.90;999.90;;;;;;;21.48;47.22;95739.75;5070572;28;20205;-60
2021/05/03 08:49:46;;;;;;;1999.90;999.90;;;;;;;21.34;45.20;95739.56;5070736;28;20829;-60
2021/05/03 08:52:17;;;;;;;1999.90;999.90;;;;;;;21.32;44.46;95733.84;5070800;28;20193;-61
2021/05/03 08:54:44;;;;;;;1999.90;999.90;;;;;;;21.02;44.28;95727.72;5070589;28;20660;-60
2021/05/03 08:57:13;;;;;;;1999.90;999.90;;;;;;;21.24;46.26;95726.94;5070291;28;20283;-60
2021/05/03 08:59:41;;;;;;;1999.90;999.90;;;;;;;21.74;46.28;95724.97;5070390;28;20583;-60
2021/05/03 09:02:13;;;;;;;1999.90;999.90;;;;;;;22.02;43.22;95725.34;5070272;28;20228;-62
2021/05/03 09:04:40;;;;;;;1999.90;999.90;;;;;;;22.01;42.93;95728.38;5070593;28;20691;-60
2021/05/03 09:07:11;;;;;;;1999.90;999.90;;;;;;;21.67;43.53;95723.00;5070480;28;20270;-60
2021/05/03 09:09:40;;;;;;;1999.90;999.90;;;;;;;21.39;44.85;95722.63;5070190;28;20664;-60
2021/05/03 09:12:09;;;;;;;1999.90;999.90;;;;;;;21.44;44.66;95704.56;5070437;28;20279;-62
2021/05/03 09:14:46;;;;;;;1999.90;999.90;;;;;;;21.65;45.12;95713.91;5070546;28;20227;-62
2021/05/03 09:17:23;;;;;;;1999.90;999.90;;;;;;;22.16;44.07;95696.41;5070058;28;20731;-60
2021/05/03 09:19:50;;;;;;;1999.90;999.90;;;;;;;22.08;45.25;95699.31;5070395;28;20188;-60
2021/05/03 09:22:28;;;;;;;1999.90;999.90;;;;;;;21.85;45.06;95704.72;5069977;28;20228;-60
2021/05/03 09:25:15;;;;;;;1999.90;999.90;;;;;;;22.39;45.50;95698.91;5069240;28;20690;-61
2021/05/03 09:27:41;;;;;;;1999.90;999.90;;;;;;;22.17;43.47;95697.91;5070208;28;20637;-61
2021/05/03 09:30:09;;;;;;;1999.90;999.90;;;;;;;22.10;42.86;95689.91;5070058;28;20638;-60
2021/05/03 09:32:37;;;;;;;1999.90;999.90;;;;;;;22.08;43.88;95686.84;5069924;28;20196;-60
2021/05/03 09:35:04;;;;;;;1999.90;999.90;;;;;;;21.82;44.97;95687.66;5070215;28;20200;-61
2021/05/03 09:37:34;;;;;;;1999.90;999.90;;;;;;;22.20;44.57;95680.56;5069994;28;20231;-60
2021/05/03 09:40:06;;;;;;;1999.90;999.90;;;;;;;22.03;44.19;95681.88;5069995;28;20197;-60
2021/05/03 09:42:51;;;;;;;1999.90;999.90;;;;;;;22.10;44.07;95684.63;5069835;28;20777;-60
2021/05/03 09:45:21;;;;;;;1999.90;999.90;;;;;;;22.12;43.83;95687.66;5069899;28;20641;-60
2021/05/03 09:47:51;;;;;;;1999.90;999.90;;;;;;;22.28;43.67;95703.34;5070484;28;20239;-61
2021/05/03 09:50:19;;;;;;;1999.90;999.90;;;;;;;22.26;43.96;95705.59;5069977;28;20291;-59
2021/05/03 09:53:05;;;;;;;1999.90;999.90;;;;;;;21.93;43.51;95695.72;5069897;28;20196;-61
2021/05/03 09:55:35;;;;;;;1999.90;999.90;;;;;;;21.73;43.15;95691.69;5069818;28;20256;-61
2021/05/03 09:58:13;;;;;;;1999.90;999.90;;;;;;;21.93;44.35;95690.44;5070010;28;20196;-63
2021/05/03 10:00:42;;;;;;;1999.90;999.90;;;;;;;22.13;43.24;95691.06;5070287;28;20192;-63
2021/05/03 10:03:34;;;;;;;1999.90;999.90;;;;;;;22.25;42.76;95701.41;5069660;28;20304;-63
2021/05/03 10:06:03;;;;;;;1999.90;999.90;;;;;;;22.27;43.43;95697.28;5069490;28;20669;-62
2021/05/03 10:08:29;;;;;;;1999.90;999.90;;;;;;;22.32;44.87;95691.66;5069873;28;20200;-62
2021/05/03 10:11:00;;;;;;;1999.90;999.90;;;;;;;22.20;43.44;95694.56;5069670;28;20193;-61
2021/05/03 10:13:29;;;;;;;1999.90;999.90;;;;;;;22.43;45.59;95706.88;5069829;28;20261;-62
2021/05/03 10:15:58;;;;;;;1999.90;999.90;;;;;;;22.28;42.15;95696.16;5069643;28;20193;-64
2021/05/03 10:18:27;;;;;;;1999.90;999.90;;;;;;;22.69;41.16;95702.22;5070142;28;20228;-62
2021/05/03 10:20:56;;;;;;;1999.90;999.90;;;;;;;22.67;44.41;95699.16;5069463;28;20571;-62
2021/05/03 10:23:25;;;;;;;1999.90;999.90;;;;;;;22.52;43.78;95684.25;5069885;28;20236;-62
2021/05/03 10:26:02;;;;;;;1999.90;999.90;;;;;;;22.73;42.23;95689.03;5069501;28;20213;-62
2021/05/03 10:28:29;;;;;;;1999.90;999.90;;;;;;;22.69;43.72;95686.31;5069342;28;20196;-62
2021/05/03 10:30:57;;;;;;;1999.90;999.90;;;;;;;23.02;41.86;95680.16;5069259;28;20201;-61
2021/05/03 10:33:35;;;;;;;1999.90;999.90;;;;;;;22.85;40.52;95695.94;5069381;28;20201;-61
2021/05/03 10:36:05;;;;;;;1999.90;999.90;;;;;;;22.99;40.79;95696.81;5071036;28;20184;-62
2021/05/03 10:38:38;;;;;;;1999.90;999.90;;;;;;;22.87;40.70;95699.72;5073240;28;20709;-61
2021/05/03 10:41:25;;;;;;;1999.90;999.90;;;;;;;22.89;40.18;95689.53;5073046;28;20193;-62
2021/05/03 10:44:10;;;;;;;1999.90;999.90;;;;;;;23.25;40.61;95695.09;5072797;28;20220;-61
2021/05/03 10:49:42;;;;;;;1999.90;999.90;;;;;;;23.28;37.01;95676.53;5072919;28;20199;-62
2021/05/03 10:52:15;;;;;;;1999.90;999.90;;;;;;;22.78;36.78;95672.03;5073004;28;20199;-62
2021/05/03 10:54:50;;;;;;;1999.90;999.90;;;;;;;23.02;37.87;95682.06;5073189;28;20204;-61
2021/05/03 10:57:37;;;;;;;1999.90;999.90;;;;;;;23.47;38.97;95673.66;5072920;28;20218;-62
2021/05/03 11:00:29;;;;;;;1999.90;999.90;;;;;;;23.73;34.47;95679.84;5072905;28;20308;-62
2021/05/03 11:02:55;;;;;;;1999.90;999.90;;;;;;;23.45;36.31;95688.44;5072907;28;20285;-61
2021/05/03 11:05:25;;;;;;;1999.90;999.90;;;;;;;23.38;36.93;95680.38;5072715;28;20659;-62
2021/05/03 11:08:20;;;;;;;1999.90;999.90;;;;;;;23.02;37.90;95685.47;5072522;28;20203;-60
2021/05/03 11:11:10;;;;;;;1999.90;999.90;;;;;;;23.04;38.85;95685.88;5072510;28;20679;-61
2021/05/03 11:13:56;;;;;;;1999.90;999.90;;;;;;;23.10;38.73;95681.75;5072641;28;20374;-61